sensor_id;sensor_type;location;lat;lon;timestamp;temperature;humidity
21646;DHT22;10984;45.712;4.800;2023-07-20T00:01:03;22.20;1.00
21646;DHT22;10984;45.712;4.800;2023-07-20T00:03:29;22.10;1.00
21646;DHT22;10984;45.712;4.800;2023-07-20T00:05:55;22.10;1.00
21646;DHT22;10984;45.712;4.800;2023-07-20T00:08:20;22.20;1.00
21646;DHT22;10984;45.712;4.800;2023-07-20T00:10:46;22.20;1.00
21646;DHT22;10984;45.712;4.800;2023-07-20T00:13:12;22.20;1.00
21646;DHT22;10984;45.712;4.800;2023-07-20T00:15:38;22.10;1.00
21646;DHT22;10984;45.712;4.800;2023-07-20T00:18:04;22.10;1.00
21646;DHT22;10984;45.712;4.800;2023-07-20T00:20:30;22.10;1.00
21646;DHT22;10984;45.712;4.800;2023-07-20T00:22:56;22.10;1.00
21646;DHT22;10984;45.712;4.800;2023-07-20T00:25:23;22.10;1.00
21646;DHT22;10984;45.712;4.800;2023-07-20T00:27:49;22.10;1.00
21646;DHT22;10984;45.712;4.800;2023-07-20T00:30:15;22.10;1.00
21646;DHT22;10984;45.712;4.800;2023-07-20T00:32:42;22.10;1.00
21646;DHT22;10984;45.712;4.800;2023-07-20T00:35:08;22.10;1.00
21646;DHT22;10984;45.712;4.800;2023-07-20T00:37:34;22.10;1.00
21646;DHT22;10984;45.712;4.800;2023-07-20T00:40:00;22.10;1.00
21646;DHT22;10984;45.712;4.800;2023-07-20T00:42:26;22.10;1.00
21646;DHT22;10984;45.712;4.800;2023-07-20T00:44:51;22.00;1.00
21646;DHT22;10984;45.712;4.800;2023-07-20T00:47:17;22.00;1.00
21646;DHT22;10984;45.712;4.800;2023-07-20T00:49:43;22.00;1.00
21646;DHT22;10984;45.712;4.800;2023-07-20T00:52:11;22.00;1.00
21646;DHT22;10984;45.712;4.800;2023-07-20T00:54:38;22.00;42.70
21646;DHT22;10984;45.712;4.800;2023-07-20T00:57:04;22.00;97.30
21646;DHT22;10984;45.712;4.800;2023-07-20T00:59:31;22.00;99.90
21646;DHT22;10984;45.712;4.800;2023-07-20T01:01:56;21.90;99.90
21646;DHT22;10984;45.712;4.800;2023-07-20T01:04:22;21.80;11.20
21646;DHT22;10984;45.712;4.800;2023-07-20T01:07:00;21.80;86.90
21646;DHT22;10984;45.712;4.800;2023-07-20T01:12:51;21.80;99.90
21646;DHT22;10984;45.712;4.800;2023-07-20T01:15:17;21.70;99.90
21646;DHT22;10984;45.712;4.800;2023-07-20T01:17:43;21.70;99.90
21646;DHT22;10984;45.712;4.800;2023-07-20T01:20:13;21.70;99.90
21646;DHT22;10984;45.712;4.800;2023-07-20T01:31:52;21.60;99.90
21646;DHT22;10984;45.712;4.800;2023-07-20T01:34:19;21.60;99.90
21646;DHT22;10984;45.712;4.800;2023-07-20T01:36:45;21.60;99.90
21646;DHT22;10984;45.712;4.800;2023-07-20T01:39:11;21.50;99.90
21646;DHT22;10984;45.712;4.800;2023-07-20T01:41:37;21.60;99.90
21646;DHT22;10984;45.712;4.800;2023-07-20T01:44:04;21.60;99.90
21646;DHT22;10984;45.712;4.800;2023-07-20T01:46:29;21.50;99.90
21646;DHT22;10984;45.712;4.800;2023-07-20T01:48:55;21.50;99.90
21646;DHT22;10984;45.712;4.800;2023-07-20T01:51:21;21.40;99.90
21646;DHT22;10984;45.712;4.800;2023-07-20T01:53:47;21.40;99.90
21646;DHT22;10984;45.712;4.800;2023-07-20T01:56:13;21.40;99.90
21646;DHT22;10984;45.712;4.800;2023-07-20T01:58:38;21.40;99.90
21646;DHT22;10984;45.712;4.800;2023-07-20T02:01:04;21.40;99.90
21646;DHT22;10984;45.712;4.800;2023-07-20T02:03:30;21.40;99.90
21646;DHT22;10984;45.712;4.800;2023-07-20T02:05:55;21.40;99.90
21646;DHT22;10984;45.712;4.800;2023-07-20T02:08:22;21.40;99.90
21646;DHT22;10984;45.712;4.800;2023-07-20T02:10:49;21.30;99.90
21646;DHT22;10984;45.712;4.800;2023-07-20T02:13:15;21.30;99.90
21646;DHT22;10984;45.712;4.800;2023-07-20T02:15:41;21.30;99.90
21646;DHT22;10984;45.712;4.800;2023-07-20T02:18:08;21.40;99.90
21646;DHT22;10984;45.712;4.800;2023-07-20T02:20:34;21.30;99.90
21646;DHT22;10984;45.712;4.800;2023-07-20T02:23:00;21.30;99.90
21646;DHT22;10984;45.712;4.800;2023-07-20T02:25:26;21.20;1.00
21646;DHT22;10984;45.712;4.800;2023-07-20T02:27:52;21.30;1.00
21646;DHT22;10984;45.712;4.800;2023-07-20T02:30:18;21.30;99.90
21646;DHT22;10984;45.712;4.800;2023-07-20T02:32:43;21.20;1.00
21646;DHT22;10984;45.712;4.800;2023-07-20T02:35:27;21.20;1.00
21646;DHT22;10984;45.712;4.800;2023-07-20T02:37:53;21.20;1.00
21646;DHT22;10984;45.712;4.800;2023-07-20T02:40:19;21.20;1.00
21646;DHT22;10984;45.712;4.800;2023-07-20T02:42:44;21.20;1.00
21646;DHT22;10984;45.712;4.800;2023-07-20T02:45:10;21.20;1.00
21646;DHT22;10984;45.712;4.800;2023-07-20T02:47:35;21.10;1.00
21646;DHT22;10984;45.712;4.800;2023-07-20T02:50:01;21.10;1.00
21646;DHT22;10984;45.712;4.800;2023-07-20T02:52:27;21.10;1.00
21646;DHT22;10984;45.712;4.800;2023-07-20T02:54:53;21.10;1.00
21646;DHT22;10984;45.712;4.800;2023-07-20T02:57:18;21.00;1.00
21646;DHT22;10984;45.712;4.800;2023-07-20T02:59:44;21.00;1.00
21646;DHT22;10984;45.712;4.800;2023-07-20T03:02:09;21.00;1.00
21646;DHT22;10984;45.712;4.800;2023-07-20T03:04:36;21.00;1.00
21646;DHT22;10984;45.712;4.800;2023-07-20T03:07:20;21.00;1.00
21646;DHT22;10984;45.712;4.800;2023-07-20T03:09:45;21.00;1.00
21646;DHT22;10984;45.712;4.800;2023-07-20T03:12:11;20.90;1.00
21646;DHT22;10984;45.712;4.800;2023-07-20T03:14:37;20.90;1.00
21646;DHT22;10984;45.712;4.800;2023-07-20T03:17:02;20.90;1.00
21646;DHT22;10984;45.712;4.800;2023-07-20T03:19:28;20.80;1.00
21646;DHT22;10984;45.712;4.800;2023-07-20T03:21:54;20.80;1.00
21646;DHT22;10984;45.712;4.800;2023-07-20T03:24:19;20.80;1.00
21646;DHT22;10984;45.712;4.800;2023-07-20T03:26:46;20.70;1.00
21646;DHT22;10984;45.712;4.800;2023-07-20T03:29:12;20.70;1.00
21646;DHT22;10984;45.712;4.800;2023-07-20T03:31:37;20.80;1.00
21646;DHT22;10984;45.712;4.800;2023-07-20T03:34:03;20.80;1.00
21646;DHT22;10984;45.712;4.800;2023-07-20T03:36:29;20.80;1.00
21646;DHT22;10984;45.712;4.800;2023-07-20T03:38:54;20.80;1.00
21646;DHT22;10984;45.712;4.800;2023-07-20T03:41:20;20.80;1.00
21646;DHT22;10984;45.712;4.800;2023-07-20T03:43:47;20.80;1.00
21646;DHT22;10984;45.712;4.800;2023-07-20T03:46:12;20.80;1.00
21646;DHT22;10984;45.712;4.800;2023-07-20T03:48:38;20.80;1.00
21646;DHT22;10984;45.712;4.800;2023-07-20T03:51:04;20.80;1.00
21646;DHT22;10984;45.712;4.800;2023-07-20T03:53:29;20.80;1.00
21646;DHT22;10984;45.712;4.800;2023-07-20T03:55:55;20.80;1.00
21646;DHT22;10984;45.712;4.800;2023-07-20T03:58:21;20.90;1.00
21646;DHT22;10984;45.712;4.800;2023-07-20T04:00:51;20.90;1.00
21646;DHT22;10984;45.712;4.800;2023-07-20T04:06:02;20.90;1.00
21646;DHT22;10984;45.712;4.800;2023-07-20T04:08:28;20.90;1.00
21646;DHT22;10984;45.712;4.800;2023-07-20T04:10:53;20.90;1.00
21646;DHT22;10984;45.712;4.800;2023-07-20T04:13:19;20.90;1.00
21646;DHT22;10984;45.712;4.800;2023-07-20T04:15:45;21.00;1.00
21646;DHT22;10984;45.712;4.800;2023-07-20T04:18:10;21.00;1.00
21646;DHT22;10984;45.712;4.800;2023-07-20T04:20:36;21.10;1.00
21646;DHT22;10984;45.712;4.800;2023-07-20T04:23:01;21.10;1.00
21646;DHT22;10984;45.712;4.800;2023-07-20T04:25:27;21.20;1.00
21646;DHT22;10984;45.712;4.800;2023-07-20T04:27:53;21.20;1.00
21646;DHT22;10984;45.712;4.800;2023-07-20T04:30:19;21.20;1.00
21646;DHT22;10984;45.712;4.800;2023-07-20T04:33:03;21.20;1.00
21646;DHT22;10984;45.712;4.800;2023-07-20T04:38:14;21.30;1.00
21646;DHT22;10984;45.712;4.800;2023-07-20T04:43:28;21.40;99.90
21646;DHT22;10984;45.712;4.800;2023-07-20T04:45:54;21.50;99.90
21646;DHT22;10984;45.712;4.800;2023-07-20T04:48:20;21.60;1.00
21646;DHT22;10984;45.712;4.800;2023-07-20T04:50:45;21.70;1.00
21646;DHT22;10984;45.712;4.800;2023-07-20T04:53:12;22.00;99.90
21646;DHT22;10984;45.712;4.800;2023-07-20T04:55:39;22.60;99.90
21646;DHT22;10984;45.712;4.800;2023-07-20T04:58:05;23.00;99.90
21646;DHT22;10984;45.712;4.800;2023-07-20T05:00:32;23.50;99.90
21646;DHT22;10984;45.712;4.800;2023-07-20T05:02:58;24.60;99.90
21646;DHT22;10984;45.712;4.800;2023-07-20T05:05:24;25.90;99.90
21646;DHT22;10984;45.712;4.800;2023-07-20T05:07:49;26.80;1.00
21646;DHT22;10984;45.712;4.800;2023-07-20T05:10:16;27.70;1.00
21646;DHT22;10984;45.712;4.800;2023-07-20T05:12:41;28.40;1.00
21646;DHT22;10984;45.712;4.800;2023-07-20T05:15:07;29.00;1.00
21646;DHT22;10984;45.712;4.800;2023-07-20T05:17:33;29.50;1.00
21646;DHT22;10984;45.712;4.800;2023-07-20T05:19:58;29.80;1.00
21646;DHT22;10984;45.712;4.800;2023-07-20T05:22:24;30.10;1.00
21646;DHT22;10984;45.712;4.800;2023-07-20T05:24:50;30.20;1.00
21646;DHT22;10984;45.712;4.800;2023-07-20T05:27:16;30.80;1.00
21646;DHT22;10984;45.712;4.800;2023-07-20T05:30:01;31.60;1.00
21646;DHT22;10984;45.712;4.800;2023-07-20T05:32:26;32.40;49.00
21646;DHT22;10984;45.712;4.800;2023-07-20T05:34:53;33.10;44.40
21646;DHT22;10984;45.712;4.800;2023-07-20T05:37:19;33.60;1.00
21646;DHT22;10984;45.712;4.800;2023-07-20T05:39:45;34.10;1.00
21646;DHT22;10984;45.712;4.800;2023-07-20T05:42:11;34.50;1.00
21646;DHT22;10984;45.712;4.800;2023-07-20T05:44:36;34.50;99.90
21646;DHT22;10984;45.712;4.800;2023-07-20T05:47:02;34.60;1.00
21646;DHT22;10984;45.712;4.800;2023-07-20T05:49:28;34.50;1.00
21646;DHT22;10984;45.712;4.800;2023-07-20T05:51:55;34.90;1.00
21646;DHT22;10984;45.712;4.800;2023-07-20T05:54:21;35.30;91.40
21646;DHT22;10984;45.712;4.800;2023-07-20T05:56:47;35.80;85.70
21646;DHT22;10984;45.712;4.800;2023-07-20T05:59:13;36.00;1.00
21646;DHT22;10984;45.712;4.800;2023-07-20T06:01:38;36.20;1.00
21646;DHT22;10984;45.712;4.800;2023-07-20T06:04:04;36.50;1.00
21646;DHT22;10984;45.712;4.800;2023-07-20T06:06:29;36.50;99.90
21646;DHT22;10984;45.712;4.800;2023-07-20T06:08:55;36.90;1.00
21646;DHT22;10984;45.712;4.800;2023-07-20T06:11:21;36.70;1.00
21646;DHT22;10984;45.712;4.800;2023-07-20T06:13:46;37.00;1.00
21646;DHT22;10984;45.712;4.800;2023-07-20T06:16:12;37.30;99.90
21646;DHT22;10984;45.712;4.800;2023-07-20T06:18:37;36.90;99.90
21646;DHT22;10984;45.712;4.800;2023-07-20T06:21:04;36.50;99.90
21646;DHT22;10984;45.712;4.800;2023-07-20T06:23:30;36.20;99.90
21646;DHT22;10984;45.712;4.800;2023-07-20T06:25:55;36.00;99.90
21646;DHT22;10984;45.712;4.800;2023-07-20T06:28:21;36.20;99.90
21646;DHT22;10984;45.712;4.800;2023-07-20T06:30:47;36.80;96.10
21646;DHT22;10984;45.712;4.800;2023-07-20T06:33:12;37.20;65.00
21646;DHT22;10984;45.712;4.800;2023-07-20T06:35:41;36.60;99.90
21646;DHT22;10984;45.712;4.800;2023-07-20T06:38:07;37.10;99.90
21646;DHT22;10984;45.712;4.800;2023-07-20T06:40:33;37.60;99.90
21646;DHT22;10984;45.712;4.800;2023-07-20T06:42:59;36.50;1.00
21646;DHT22;10984;45.712;4.800;2023-07-20T06:45:24;35.40;1.00
21646;DHT22;10984;45.712;4.800;2023-07-20T06:47:51;34.80;1.00
21646;DHT22;10984;45.712;4.800;2023-07-20T06:50:16;33.60;1.00
21646;DHT22;10984;45.712;4.800;2023-07-20T06:52:42;31.90;1.00
21646;DHT22;10984;45.712;4.800;2023-07-20T06:55:08;30.90;1.00
21646;DHT22;10984;45.712;4.800;2023-07-20T06:57:33;30.20;1.00
21646;DHT22;10984;45.712;4.800;2023-07-20T06:59:59;29.60;1.00
21646;DHT22;10984;45.712;4.800;2023-07-20T07:02:25;28.90;1.00
21646;DHT22;10984;45.712;4.800;2023-07-20T07:04:50;28.50;1.00
21646;DHT22;10984;45.712;4.800;2023-07-20T07:07:16;28.00;1.00
21646;DHT22;10984;45.712;4.800;2023-07-20T07:09:42;27.90;1.00
21646;DHT22;10984;45.712;4.800;2023-07-20T07:12:08;27.50;1.00
21646;DHT22;10984;45.712;4.800;2023-07-20T07:14:34;27.10;1.00
21646;DHT22;10984;45.712;4.800;2023-07-20T07:17:00;27.20;20.70
21646;DHT22;10984;45.712;4.800;2023-07-20T07:19:26;27.30;95.20
21646;DHT22;10984;45.712;4.800;2023-07-20T07:21:51;27.40;89.30
21646;DHT22;10984;45.712;4.800;2023-07-20T07:24:17;27.10;67.80
21646;DHT22;10984;45.712;4.800;2023-07-20T07:26:43;26.80;99.90
21646;DHT22;10984;45.712;4.800;2023-07-20T07:29:08;26.80;99.90
21646;DHT22;10984;45.712;4.800;2023-07-20T07:31:35;27.00;99.90
21646;DHT22;10984;45.712;4.800;2023-07-20T07:34:02;26.80;99.90
21646;DHT22;10984;45.712;4.800;2023-07-20T07:36:28;26.70;99.90
21646;DHT22;10984;45.712;4.800;2023-07-20T07:38:53;26.90;99.90
21646;DHT22;10984;45.712;4.800;2023-07-20T07:41:19;26.90;99.90
21646;DHT22;10984;45.712;4.800;2023-07-20T07:43:46;26.70;99.90
21646;DHT22;10984;45.712;4.800;2023-07-20T07:46:11;26.90;99.90
21646;DHT22;10984;45.712;4.800;2023-07-20T07:48:37;27.10;99.90
21646;DHT22;10984;45.712;4.800;2023-07-20T07:51:03;27.20;99.90
21646;DHT22;10984;45.712;4.800;2023-07-20T07:53:28;27.40;31.60
21646;DHT22;10984;45.712;4.800;2023-07-20T07:55:54;27.20;33.80
21646;DHT22;10984;45.712;4.800;2023-07-20T07:58:20;26.80;30.70
21646;DHT22;10984;45.712;4.800;2023-07-20T08:00:46;26.80;1.00
21646;DHT22;10984;45.712;4.800;2023-07-20T08:03:13;26.70;46.90
21646;DHT22;10984;45.712;4.800;2023-07-20T08:05:39;26.60;1.00
21646;DHT22;10984;45.712;4.800;2023-07-20T08:08:05;26.30;1.00
21646;DHT22;10984;45.712;4.800;2023-07-20T08:10:31;26.30;1.00
21646;DHT22;10984;45.712;4.800;2023-07-20T08:12:57;26.40;8.70
21646;DHT22;10984;45.712;4.800;2023-07-20T08:15:23;26.60;1.00
21646;DHT22;10984;45.712;4.800;2023-07-20T08:17:48;26.50;1.00
21646;DHT22;10984;45.712;4.800;2023-07-20T08:20:17;26.40;1.00
21646;DHT22;10984;45.712;4.800;2023-07-20T08:22:42;26.60;13.70
21646;DHT22;10984;45.712;4.800;2023-07-20T08:25:09;26.70;1.00
21646;DHT22;10984;45.712;4.800;2023-07-20T08:27:36;26.50;1.00
21646;DHT22;10984;45.712;4.800;2023-07-20T08:30:02;26.70;45.10
21646;DHT22;10984;45.712;4.800;2023-07-20T08:32:28;26.80;1.00
21646;DHT22;10984;45.712;4.800;2023-07-20T08:34:53;26.80;1.00
21646;DHT22;10984;45.712;4.800;2023-07-20T08:37:19;27.00;1.00
21646;DHT22;10984;45.712;4.800;2023-07-20T08:39:44;27.00;1.00
21646;DHT22;10984;45.712;4.800;2023-07-20T08:42:10;27.00;1.00
21646;DHT22;10984;45.712;4.800;2023-07-20T08:44:38;26.90;1.00
21646;DHT22;10984;45.712;4.800;2023-07-20T08:47:06;26.80;1.00
21646;DHT22;10984;45.712;4.800;2023-07-20T08:49:32;26.60;1.00
21646;DHT22;10984;45.712;4.800;2023-07-20T08:51:59;26.60;1.00
21646;DHT22;10984;45.712;4.800;2023-07-20T08:54:31;26.40;1.00
21646;DHT22;10984;45.712;4.800;2023-07-20T08:57:15;26.40;1.00
21646;DHT22;10984;45.712;4.800;2023-07-20T08:59:42;26.50;1.00
21646;DHT22;10984;45.712;4.800;2023-07-20T09:02:13;26.60;1.00
21646;DHT22;10984;45.712;4.800;2023-07-20T09:04:41;26.70;1.00
21646;DHT22;10984;45.712;4.800;2023-07-20T09:07:09;26.60;1.00
21646;DHT22;10984;45.712;4.800;2023-07-20T09:09:40;26.80;54.00
21646;DHT22;10984;45.712;4.800;2023-07-20T09:12:13;26.70;1.00
21646;DHT22;10984;45.712;4.800;2023-07-20T09:14:39;26.20;1.00
21646;DHT22;10984;45.712;4.800;2023-07-20T09:17:04;26.20;1.00
21646;DHT22;10984;45.712;4.800;2023-07-20T09:19:30;26.10;1.00
21646;DHT22;10984;45.712;4.800;2023-07-20T09:21:56;26.10;1.00
21646;DHT22;10984;45.712;4.800;2023-07-20T09:24:22;26.20;1.00
21646;DHT22;10984;45.712;4.800;2023-07-20T09:26:51;26.20;1.00
21646;DHT22;10984;45.712;4.800;2023-07-20T09:29:18;26.20;1.00
21646;DHT22;10984;45.712;4.800;2023-07-20T09:34:43;26.40;1.00
21646;DHT22;10984;45.712;4.800;2023-07-20T09:37:09;26.20;1.00
21646;DHT22;10984;45.712;4.800;2023-07-20T09:42:26;26.40;1.00
21646;DHT22;10984;45.712;4.800;2023-07-20T09:44:52;26.20;1.00
21646;DHT22;10984;45.712;4.800;2023-07-20T09:47:37;26.30;1.00
21646;DHT22;10984;45.712;4.800;2023-07-20T09:50:04;26.30;20.70
21646;DHT22;10984;45.712;4.800;2023-07-20T09:52:31;26.30;1.00
21646;DHT22;10984;45.712;4.800;2023-07-20T09:54:57;26.10;1.00
21646;DHT22;10984;45.712;4.800;2023-07-20T09:57:23;25.90;1.00
21646;DHT22;10984;45.712;4.800;2023-07-20T09:59:50;26.20;1.00
21646;DHT22;10984;45.712;4.800;2023-07-20T10:02:34;26.40;1.00
21646;DHT22;10984;45.712;4.800;2023-07-20T10:05:03;26.50;1.00
21646;DHT22;10984;45.712;4.800;2023-07-20T10:07:49;26.30;1.00
21646;DHT22;10984;45.712;4.800;2023-07-20T10:10:17;26.20;1.00
21646;DHT22;10984;45.712;4.800;2023-07-20T10:12:46;26.40;1.00
21646;DHT22;10984;45.712;4.800;2023-07-20T10:15:19;26.40;1.00
21646;DHT22;10984;45.712;4.800;2023-07-20T10:20:51;26.60;1.00
21646;DHT22;10984;45.712;4.800;2023-07-20T10:23:19;26.70;1.00
21646;DHT22;10984;45.712;4.800;2023-07-20T10:25:46;26.80;1.00
21646;DHT22;10984;45.712;4.800;2023-07-20T10:28:12;26.90;1.00
21646;DHT22;10984;45.712;4.800;2023-07-20T10:30:38;26.90;1.00
21646;DHT22;10984;45.712;4.800;2023-07-20T10:33:05;26.80;1.00
21646;DHT22;10984;45.712;4.800;2023-07-20T10:38:53;26.80;1.00
21646;DHT22;10984;45.712;4.800;2023-07-20T10:44:07;26.80;1.00
21646;DHT22;10984;45.712;4.800;2023-07-20T10:46:34;26.80;1.00
21646;DHT22;10984;45.712;4.800;2023-07-20T10:49:19;26.80;1.00
21646;DHT22;10984;45.712;4.800;2023-07-20T10:51:57;26.70;1.00
21646;DHT22;10984;45.712;4.800;2023-07-20T10:55:09;26.60;1.00
21646;DHT22;10984;45.712;4.800;2023-07-20T10:57:35;26.80;1.00
21646;DHT22;10984;45.712;4.800;2023-07-20T11:00:19;26.90;1.00
21646;DHT22;10984;45.712;4.800;2023-07-20T11:02:48;27.00;1.00
21646;DHT22;10984;45.712;4.800;2023-07-20T11:08:38;27.10;1.00
21646;DHT22;10984;45.712;4.800;2023-07-20T11:11:25;27.10;1.00
21646;DHT22;10984;45.712;4.800;2023-07-20T11:14:10;27.10;1.00
21646;DHT22;10984;45.712;4.800;2023-07-20T11:16:46;27.20;1.00
21646;DHT22;10984;45.712;4.800;2023-07-20T11:19:31;27.30;1.00
21646;DHT22;10984;45.712;4.800;2023-07-20T11:21:57;27.30;1.00
21646;DHT22;10984;45.712;4.800;2023-07-20T11:24:23;27.30;1.00
21646;DHT22;10984;45.712;4.800;2023-07-20T11:26:51;27.30;1.00
21646;DHT22;10984;45.712;4.800;2023-07-20T11:29:18;27.30;1.00
21646;DHT22;10984;45.712;4.800;2023-07-20T11:31:45;27.30;1.00
21646;DHT22;10984;45.712;4.800;2023-07-20T11:34:16;27.30;1.00
21646;DHT22;10984;45.712;4.800;2023-07-20T11:36:46;27.20;1.00
21646;DHT22;10984;45.712;4.800;2023-07-20T11:39:14;27.30;1.00
21646;DHT22;10984;45.712;4.800;2023-07-20T14:30:20;28.30;1.00
21646;DHT22;10984;45.712;4.800;2023-07-20T14:32:46;28.30;1.00
21646;DHT22;10984;45.712;4.800;2023-07-20T14:35:11;28.30;1.00
21646;DHT22;10984;45.712;4.800;2023-07-20T14:37:37;28.20;1.00
21646;DHT22;10984;45.712;4.800;2023-07-20T14:40:03;28.30;1.00
21646;DHT22;10984;45.712;4.800;2023-07-20T14:42:30;28.20;1.00
21646;DHT22;10984;45.712;4.800;2023-07-20T14:44:57;28.30;1.00
21646;DHT22;10984;45.712;4.800;2023-07-20T14:47:23;28.30;1.00
21646;DHT22;10984;45.712;4.800;2023-07-20T14:49:49;28.30;1.00
21646;DHT22;10984;45.712;4.800;2023-07-20T14:52:15;28.40;1.00
21646;DHT22;10984;45.712;4.800;2023-07-20T14:54:40;28.40;1.00
21646;DHT22;10984;45.712;4.800;2023-07-20T14:57:06;28.40;1.00
21646;DHT22;10984;45.712;4.800;2023-07-20T14:59:39;28.50;1.00
21646;DHT22;10984;45.712;4.800;2023-07-20T15:02:05;28.40;1.00
21646;DHT22;10984;45.712;4.800;2023-07-20T15:04:30;28.40;1.00
21646;DHT22;10984;45.712;4.800;2023-07-20T15:06:56;28.40;1.00
21646;DHT22;10984;45.712;4.800;2023-07-20T15:09:22;28.40;1.00
21646;DHT22;10984;45.712;4.800;2023-07-20T15:11:47;28.40;1.00
21646;DHT22;10984;45.712;4.800;2023-07-20T15:14:13;28.50;1.00
21646;DHT22;10984;45.712;4.800;2023-07-20T15:16:39;28.50;1.00
21646;DHT22;10984;45.712;4.800;2023-07-20T15:19:04;28.50;1.00
21646;DHT22;10984;45.712;4.800;2023-07-20T15:21:30;28.40;1.00
21646;DHT22;10984;45.712;4.800;2023-07-20T15:23:57;28.50;1.00
21646;DHT22;10984;45.712;4.800;2023-07-20T15:26:24;28.60;1.00
21646;DHT22;10984;45.712;4.800;2023-07-20T15:28:50;28.60;1.00
21646;DHT22;10984;45.712;4.800;2023-07-20T15:31:16;28.70;1.00
21646;DHT22;10984;45.712;4.800;2023-07-20T15:33:41;28.70;1.00
21646;DHT22;10984;45.712;4.800;2023-07-20T15:36:08;28.80;1.00
21646;DHT22;10984;45.712;4.800;2023-07-20T15:38:34;28.70;1.00
21646;DHT22;10984;45.712;4.800;2023-07-20T15:41:00;28.60;1.00
21646;DHT22;10984;45.712;4.800;2023-07-20T15:43:27;28.60;1.00
21646;DHT22;10984;45.712;4.800;2023-07-20T15:48:44;28.40;1.00
21646;DHT22;10984;45.712;4.800;2023-07-20T15:51:10;28.40;1.00
21646;DHT22;10984;45.712;4.800;2023-07-20T15:53:36;28.30;1.00
21646;DHT22;10984;45.712;4.800;2023-07-20T15:56:01;28.30;1.00
21646;DHT22;10984;45.712;4.800;2023-07-20T15:58:27;28.20;1.00
21646;DHT22;10984;45.712;4.800;2023-07-20T16:00:54;28.20;1.00
21646;DHT22;10984;45.712;4.800;2023-07-20T16:03:20;28.30;1.00
21646;DHT22;10984;45.712;4.800;2023-07-20T16:05:46;28.20;1.00
21646;DHT22;10984;45.712;4.800;2023-07-20T16:08:12;28.30;1.00
21646;DHT22;10984;45.712;4.800;2023-07-20T16:10:38;28.40;1.00
21646;DHT22;10984;45.712;4.800;2023-07-20T16:13:04;28.30;1.00
21646;DHT22;10984;45.712;4.800;2023-07-20T16:15:30;28.30;1.00
21646;DHT22;10984;45.712;4.800;2023-07-20T16:17:55;28.20;1.00
21646;DHT22;10984;45.712;4.800;2023-07-20T16:20:21;28.20;1.00
21646;DHT22;10984;45.712;4.800;2023-07-20T16:22:47;28.10;1.00
21646;DHT22;10984;45.712;4.800;2023-07-20T16:25:13;28.10;1.00
21646;DHT22;10984;45.712;4.800;2023-07-20T16:27:38;28.10;1.00
21646;DHT22;10984;45.712;4.800;2023-07-20T16:30:05;28.20;1.00
21646;DHT22;10984;45.712;4.800;2023-07-20T16:32:32;28.20;1.00
21646;DHT22;10984;45.712;4.800;2023-07-20T16:34:59;28.20;1.00
21646;DHT22;10984;45.712;4.800;2023-07-20T16:37:25;28.20;1.00
21646;DHT22;10984;45.712;4.800;2023-07-20T16:39:51;28.10;1.00
21646;DHT22;10984;45.712;4.800;2023-07-20T16:42:18;28.10;1.00
21646;DHT22;10984;45.712;4.800;2023-07-20T16:44:49;28.00;1.00
21646;DHT22;10984;45.712;4.800;2023-07-20T16:47:15;27.90;1.00
21646;DHT22;10984;45.712;4.800;2023-07-20T16:49:41;27.90;1.00
21646;DHT22;10984;45.712;4.800;2023-07-20T16:52:06;27.90;1.00
21646;DHT22;10984;45.712;4.800;2023-07-20T16:54:32;27.80;1.00
21646;DHT22;10984;45.712;4.800;2023-07-20T16:56:58;27.80;1.00
21646;DHT22;10984;45.712;4.800;2023-07-20T16:59:23;27.70;1.00
21646;DHT22;10984;45.712;4.800;2023-07-20T17:01:49;27.80;1.00
21646;DHT22;10984;45.712;4.800;2023-07-20T17:04:17;27.70;1.00
21646;DHT22;10984;45.712;4.800;2023-07-20T17:06:44;27.70;1.00
21646;DHT22;10984;45.712;4.800;2023-07-20T17:09:12;27.60;1.00
21646;DHT22;10984;45.712;4.800;2023-07-20T17:11:38;27.60;1.00
21646;DHT22;10984;45.712;4.800;2023-07-20T17:14:04;27.50;1.00
21646;DHT22;10984;45.712;4.800;2023-07-20T17:16:30;27.50;1.00
21646;DHT22;10984;45.712;4.800;2023-07-20T17:18:56;27.50;1.00
21646;DHT22;10984;45.712;4.800;2023-07-20T17:21:22;27.60;1.00
21646;DHT22;10984;45.712;4.800;2023-07-20T17:23:51;27.50;1.00
21646;DHT22;10984;45.712;4.800;2023-07-20T17:26:16;27.40;1.00
21646;DHT22;10984;45.712;4.800;2023-07-20T17:28:42;27.30;1.00
21646;DHT22;10984;45.712;4.800;2023-07-20T17:31:07;27.30;1.00
21646;DHT22;10984;45.712;4.800;2023-07-20T17:33:33;27.20;1.00
21646;DHT22;10984;45.712;4.800;2023-07-20T17:36:00;27.20;1.00
21646;DHT22;10984;45.712;4.800;2023-07-20T17:38:25;27.20;1.00
21646;DHT22;10984;45.712;4.800;2023-07-20T17:40:51;27.20;1.00
21646;DHT22;10984;45.712;4.800;2023-07-20T17:43:35;27.20;1.00
21646;DHT22;10984;45.712;4.800;2023-07-20T17:46:01;27.10;1.00
21646;DHT22;10984;45.712;4.800;2023-07-20T17:48:27;27.10;1.00
21646;DHT22;10984;45.712;4.800;2023-07-20T17:50:54;27.10;1.00
21646;DHT22;10984;45.712;4.800;2023-07-20T17:53:20;27.00;1.00
21646;DHT22;10984;45.712;4.800;2023-07-20T17:55:46;27.00;1.00
21646;DHT22;10984;45.712;4.800;2023-07-20T17:58:12;26.90;1.00
21646;DHT22;10984;45.712;4.800;2023-07-20T18:00:38;26.90;1.00
21646;DHT22;10984;45.712;4.800;2023-07-20T18:03:03;26.80;1.00
21646;DHT22;10984;45.712;4.800;2023-07-20T18:05:29;26.80;1.00
21646;DHT22;10984;45.712;4.800;2023-07-20T18:07:55;26.80;1.00
21646;DHT22;10984;45.712;4.800;2023-07-20T18:10:20;26.70;1.00
21646;DHT22;10984;45.712;4.800;2023-07-20T18:12:46;26.70;1.00
21646;DHT22;10984;45.712;4.800;2023-07-20T18:15:12;26.60;1.00
21646;DHT22;10984;45.712;4.800;2023-07-20T18:17:38;26.60;1.00
21646;DHT22;10984;45.712;4.800;2023-07-20T18:20:07;26.50;1.00
21646;DHT22;10984;45.712;4.800;2023-07-20T18:22:34;26.50;1.00
21646;DHT22;10984;45.712;4.800;2023-07-20T18:25:00;26.50;1.00
21646;DHT22;10984;45.712;4.800;2023-07-20T18:27:26;26.40;1.00
21646;DHT22;10984;45.712;4.800;2023-07-20T18:29:53;26.40;1.00
21646;DHT22;10984;45.712;4.800;2023-07-20T18:32:19;26.40;1.00
21646;DHT22;10984;45.712;4.800;2023-07-20T18:34:44;26.40;1.00
21646;DHT22;10984;45.712;4.800;2023-07-20T18:37:10;26.40;1.00
21646;DHT22;10984;45.712;4.800;2023-07-20T18:39:37;26.30;1.00
21646;DHT22;10984;45.712;4.800;2023-07-20T18:42:03;26.20;1.00
21646;DHT22;10984;45.712;4.800;2023-07-20T18:44:29;26.20;1.00
21646;DHT22;10984;45.712;4.800;2023-07-20T18:46:55;26.20;1.00
21646;DHT22;10984;45.712;4.800;2023-07-20T18:49:22;26.20;1.00
21646;DHT22;10984;45.712;4.800;2023-07-20T18:51:48;26.10;1.00
21646;DHT22;10984;45.712;4.800;2023-07-20T18:54:14;26.10;1.00
21646;DHT22;10984;45.712;4.800;2023-07-20T18:56:41;26.00;1.00
21646;DHT22;10984;45.712;4.800;2023-07-20T18:59:07;26.00;1.00
21646;DHT22;10984;45.712;4.800;2023-07-20T19:01:33;26.00;1.00
21646;DHT22;10984;45.712;4.800;2023-07-20T19:03:59;25.90;1.00
21646;DHT22;10984;45.712;4.800;2023-07-20T19:06:24;25.90;1.00
21646;DHT22;10984;45.712;4.800;2023-07-20T19:08:50;25.90;1.00
21646;DHT22;10984;45.712;4.800;2023-07-20T19:11:15;25.90;1.00